TimeCDT,TemperatureF,Dew PointF,Humidity,Sea Level PressureIn,VisibilityMPH,Wind Direction,Wind SpeedMPH,Gust SpeedMPH,PrecipitationIn,Events,Conditions,WindDirDegrees,DateUTC
12:53 AM,84.9,64.9,51,29.91,10.0,South,8.1,-,N/A,,Clear,170,2013-09-08 05:53:00
1:53 AM,82.9,64.9,54,29.89,10.0,South,9.2,-,N/A,,Clear,170,2013-09-08 06:53:00
2:53 AM,81.0,66.0,60,29.89,10.0,South,8.1,-,N/A,,Clear,190,2013-09-08 07:53:00
3:53 AM,80.1,66.0,62,29.89,10.0,South,8.1,-,N/A,,Clear,190,2013-09-08 08:53:00
4:53 AM,80.1,66.0,62,29.90,10.0,South,9.2,-,N/A,,Clear,170,2013-09-08 09:53:00
5:53 AM,78.1,64.0,62,29.91,10.0,South,4.6,-,N/A,,Clear,190,2013-09-08 10:53:00
6:53 AM,77.0,64.9,66,29.92,10.0,SSE,3.5,-,N/A,,Clear,160,2013-09-08 11:53:00
7:53 AM,78.1,64.9,64,29.92,10.0,South,3.5,-,N/A,,Partly Cloudy,180,2013-09-08 12:53:00
8:53 AM,82.0,64.9,56,29.92,10.0,SW,6.9,-,N/A,,Clear,220,2013-09-08 13:53:00
9:53 AM,87.1,66.0,49,29.93,10.0,SW,6.9,-,N/A,,Clear,220,2013-09-08 14:53:00
10:53 AM,91.0,66.0,44,29.92,10.0,SSW,8.1,-,N/A,,Clear,210,2013-09-08 15:53:00
11:53 AM,93.9,64.9,38,29.91,10.0,SSW,10.4,-,N/A,,Clear,200,2013-09-08 16:53:00
12:53 PM,96.1,63.0,33,29.90,10.0,SSW,6.9,-,N/A,,Clear,210,2013-09-08 17:53:00
1:53 PM,98.1,63.0,31,29.88,10.0,SSW,12.7,17.3,N/A,,Partly Cloudy,210,2013-09-08 18:53:00
2:53 PM,98.1,63.0,31,29.87,10.0,South,12.7,-,N/A,,Scattered Clouds,170,2013-09-08 19:53:00
3:53 PM,98.1,63.0,31,29.86,10.0,SSW,13.8,19.6,N/A,,Scattered Clouds,200,2013-09-08 20:53:00
4:53 PM,97.0,64.0,34,29.84,10.0,South,11.5,19.6,N/A,,Partly Cloudy,170,2013-09-08 21:53:00
5:53 PM,96.1,63.0,33,29.84,10.0,South,11.5,-,N/A,,Partly Cloudy,170,2013-09-08 22:53:00
6:53 PM,93.9,63.0,36,29.83,10.0,South,10.4,-,N/A,,Partly Cloudy,190,2013-09-08 23:53:00
7:53 PM,91.0,64.0,41,29.84,10.0,South,5.8,-,N/A,,Clear,180,2013-09-09 00:53:00
8:53 PM,88.0,64.9,46,29.85,10.0,SSE,5.8,-,N/A,,Partly Cloudy,160,2013-09-09 01:53:00
9:53 PM,84.0,66.0,55,29.87,10.0,SSE,4.6,-,N/A,,Clear,150,2013-09-09 02:53:00
10:53 PM,86.0,66.0,51,29.88,10.0,SSE,6.9,-,N/A,,Clear,160,2013-09-09 03:53:00
11:53 PM,82.9,66.0,56,29.88,10.0,South,8.1,-,N/A,,Clear,180,2013-09-09 04:53:00